Detall de PIREP

Printer-friendly versionPDF version

[2017/09/03 04:06:00]
Flight IATA:CT2100
Pilot Number:041
Company ICAO:CAT
Aircraft Type:B738/F
PAX:160
Departing Airport: LEVC
Destination Airport: LEAS
Alternate Airport:LEMD
Online: VATSIM
Route:CENTA/N0400F230 A33 PRADO/N0430F330 UN733 ZMR/N0400F240 R107 XONDA
Flight Level:FL330
No Slew and time accel
No pause
Crash detect
Detect pilot in Cockpit between each 30 and 45 minutes
04:06 Zero fuel Weight: 135789 Lbs, Fuel Weight: 26988 Lbs
04:06 VATSIM:LEVC 030330Z 29003KT CAVOK 19/16 Q1017 NOSIG
04:06 VATSIM:LEAS 030330Z AUTO 24003KT 9000 SCT060 BKN070 17/15 Q1017
04:06 VOICE CATALONIAN
04:17 Parking Brakes off
04:24 Take-off
04:24 Take off Weight: 161870 Lbs
04:24 Wind: 008º @ 000 Knots Heading: 295º
04:24 POS N39º 29´ 41´´ W000º 29´ 49´´
04:24 Gear Up: 174 Knots
04:24 Flaps:3 at 174 Knots
04:25 Flaps:2 at 179 Knots
04:25 Flaps:1 at 196 Knots
04:25 Flaps:0 at204 Knots
04:39 Wind:014º@000 Knots Heading: 299º Ground Speed: 421 Knots Altitude 24767 ft
04:46 TOC
04:46 Fuel Weight: 21927 Lb
04:54 Wind:267º@032 Knots Heading: 294º Ground Speed: 435 Knots Altitude 33218 ft
05:01 TOD
05:01 Fuel Weight: 20325 Lb
05:09 Wind:285º@034 Knots Heading: 348º Ground Speed: 429 Knots Altitude 24206 ft
05:22 Flaps:1 at 245 Knots
05:24 Wind:279º@015 Knots Heading: 059º Ground Speed: 259 Knots Altitude 5121 ft
05:24 Flaps:2 at 230 Knots
05:24 Flaps:3 at 230 Knots
05:28 Flaps:4 at 223 Knots
05:28 Flaps:5 at 222 Knots
05:29 Flaps:6 at 199 Knots
05:29 Gear Down: 184 Knots
05:30 Flaps:7 at 170 Knots
05:30 Flaps:8 at 158 Knots
05:33 TouchDown:Rate -111 ft/min Speed: 133 Knots
05:34 VATSIM:LEAS 030500Z 25004KT 9999 BKN042 17/15 Q1017 NOSIG
05:34 Land
05:34 Wind:232º@004 Knots
05:34 Heading: 288º
05:34 Flight Duration: 01:10
05:34 Landing Weight: 153761 Lbs
05:34 POS N43º 33´ 50´´ W006º 02´ 10´´
05:37 Parking brakes on
05:37 Block to Block Duration: 01:20
05:37 Final Fuel: 17643 Lbls
05:37 Spent Fuel: 9345 Lbls
05:37 Flight Length: 422 NM
05:37 TOD Land Length: 176 NM

Exportar CSV

Powered by Drupal - Modified by Danger4k